createdAt,value
2018-12-24T00:01:14.710Z,101154.53
2018-12-24T00:03:44.079Z,101154.53
2018-12-24T00:06:13.486Z,101160.39
2018-12-24T00:08:42.906Z,101167.98
2018-12-24T00:11:12.396Z,101165.78
2018-12-24T00:13:41.865Z,101172.64
2018-12-24T00:16:11.247Z,101173.51
2018-12-24T00:18:40.819Z,101173.51
2018-12-24T00:21:10.301Z,101173.51
2018-12-24T00:23:39.845Z,101176.69
2018-12-24T00:26:09.512Z,101180.72
2018-12-24T00:28:38.888Z,101180.72
2018-12-24T00:31:08.296Z,101176.79
2018-12-24T00:33:37.724Z,101179.48
2018-12-24T00:36:07.095Z,101181.20
2018-12-24T00:38:36.565Z,101186.20
2018-12-24T00:41:06.147Z,101189.41
2018-12-24T00:43:35.698Z,101190.77
2018-12-24T00:46:05.073Z,101191.73
2018-12-24T00:48:34.465Z,101195.77
2018-12-24T00:51:03.891Z,101191.73
2018-12-24T00:53:33.489Z,101192.59
2018-12-24T00:56:03.021Z,101194.42
2018-12-24T00:58:32.491Z,101194.91
2018-12-24T01:01:02.022Z,101196.38
2018-12-24T01:03:31.499Z,101198.08
2018-12-24T01:06:00.990Z,101192.83
2018-12-24T01:08:30.396Z,101195.52
2018-12-24T01:11:00.038Z,101197.73
2018-12-24T01:13:29.532Z,101199.42
2018-12-24T01:15:58.913Z,101202.98
2018-12-24T01:18:28.367Z,101199.08
2018-12-24T01:20:57.823Z,101205.32
2018-12-24T01:23:27.178Z,101204.08
2018-12-24T01:25:56.556Z,101208.98
2018-12-24T01:28:25.963Z,101211.19
2018-12-24T01:30:55.309Z,101221.81
2018-12-24T01:33:24.656Z,101220.61
2018-12-24T01:35:54.037Z,101231.13
2018-12-24T01:38:23.391Z,101229.41
2018-12-24T01:40:52.735Z,101236.13
2018-12-24T01:43:22.099Z,101243.59
2018-12-24T01:45:51.452Z,101244.07
2018-12-24T01:48:20.858Z,101242.73
2018-12-24T01:50:50.301Z,101241.38
2018-12-24T01:53:19.680Z,101247.63
2018-12-24T01:55:49.123Z,101242.24
2018-12-24T01:58:18.724Z,101237.86
2018-12-24T02:00:48.225Z,101244.07
2018-12-24T02:03:17.938Z,101246.77
2018-12-24T02:05:47.474Z,101250.31
2018-12-24T02:08:17.110Z,101253.39
2018-12-24T02:10:46.503Z,101245.80
2018-12-24T02:13:15.955Z,101243.59
2018-12-24T02:15:45.405Z,101249.70
2018-12-24T02:18:14.813Z,101248.49
2018-12-24T02:20:44.209Z,101252.91
2018-12-24T02:23:13.549Z,101244.31
2018-12-24T02:25:42.891Z,101247.52
2018-12-24T02:28:12.345Z,101248.35
2018-12-24T02:30:41.921Z,101244.83
2018-12-24T02:33:11.443Z,101243.48
2018-12-24T02:35:41.031Z,101247.52
2018-12-24T02:38:10.440Z,101257.77
2018-12-24T02:40:39.797Z,101255.08
2018-12-24T02:43:09.251Z,101251.91
2018-12-24T02:45:38.611Z,101257.77
2018-12-24T02:48:08.062Z,101261.81
2018-12-24T02:50:37.456Z,101264.50
2018-12-24T02:53:07.010Z,101264.88
2018-12-24T02:55:36.544Z,101264.50
2018-12-24T02:58:06.278Z,101262.67
2018-12-24T03:00:35.761Z,101273.82
2018-12-24T03:03:05.413Z,101267.19
2018-12-24T03:05:35.018Z,101265.84
2018-12-24T03:08:04.507Z,101267.70
2018-12-24T03:10:34.021Z,101264.50
2018-12-24T03:13:03.574Z,101266.71
2018-12-24T03:15:32.944Z,101270.75
2018-12-24T03:18:02.311Z,101267.58
2018-12-24T03:20:31.763Z,101271.61
2018-12-24T03:23:01.237Z,101272.09
2018-12-24T03:25:30.710Z,101270.64
2018-12-24T03:28:00.232Z,101275.17
2018-12-24T03:30:29.710Z,101280.06
2018-12-24T03:32:59.089Z,101277.48
2018-12-24T03:35:28.512Z,101281.03
2018-12-24T03:37:57.869Z,101280.06
2018-12-24T03:40:27.643Z,101280.55
2018-12-24T03:42:57.191Z,101276.03
2018-12-24T03:45:26.555Z,101279.20
2018-12-24T03:47:55.974Z,101275.65
2018-12-24T03:50:25.490Z,101272.47
2018-12-24T03:52:54.836Z,101272.47
2018-12-24T03:55:24.178Z,101277.37
2018-12-24T03:57:53.650Z,101281.41
2018-12-24T04:00:24.054Z,101278.34
2018-12-24T04:02:53.413Z,101276.99
2018-12-24T04:05:22.997Z,101276.03
2018-12-24T04:07:52.464Z,101277.86
2018-12-24T04:10:21.827Z,101278.72
2018-12-24T04:12:51.205Z,101284.59
2018-12-24T04:15:20.643Z,101279.20
2018-12-24T04:17:50.014Z,101277.86
2018-12-24T04:20:19.359Z,101276.03
2018-12-24T04:22:48.730Z,101279.55
2018-12-24T04:25:18.118Z,101274.69
2018-12-24T04:27:47.555Z,101278.72
2018-12-24T04:30:16.948Z,101275.52
2018-12-24T04:32:46.510Z,101280.41
2018-12-24T04:35:15.923Z,101280.89
2018-12-24T04:37:45.467Z,101279.07
2018-12-24T04:40:14.969Z,101279.20
2018-12-24T04:42:44.365Z,101274.69
2018-12-24T04:45:13.980Z,101276.86
2018-12-24T04:47:43.341Z,101281.41
2018-12-24T04:50:12.786Z,101278.72
2018-12-24T04:52:42.312Z,101279.07
2018-12-24T04:55:11.721Z,101280.55
2018-12-24T04:57:41.149Z,101283.59
2018-12-24T05:00:10.484Z,101284.94
2018-12-24T05:02:39.962Z,101284.94
2018-12-24T05:05:09.436Z,101293.01
2018-12-24T05:07:38.825Z,101285.80
2018-12-24T05:10:08.185Z,101293.88
2018-12-24T05:12:37.671Z,101288.14
2018-12-24T05:15:07.391Z,101293.01
2018-12-24T05:17:36.734Z,101294.73
2018-12-24T05:20:06.153Z,101301.47
2018-12-24T05:22:35.587Z,101300.60
2018-12-24T05:25:05.005Z,101305.98
2018-12-24T05:27:34.369Z,101303.67
2018-12-24T05:30:03.935Z,101307.33
2018-12-24T05:32:33.336Z,101309.92
2018-12-24T05:35:02.692Z,101310.02
2018-12-24T05:37:32.147Z,101312.72
2018-12-24T05:40:01.501Z,101318.48
2018-12-24T05:42:30.827Z,101320.30
2018-12-24T05:45:00.266Z,101324.83
2018-12-24T05:47:29.698Z,101323.48
2018-12-24T05:49:59.291Z,101312.36
2018-12-24T05:52:28.704Z,101321.78
2018-12-24T05:54:58.244Z,101320.44
2018-12-24T05:57:27.588Z,101323.13
2018-12-24T05:59:56.962Z,101329.86
2018-12-24T06:02:26.474Z,101323.13
2018-12-24T06:04:55.840Z,101324.09
2018-12-24T06:07:25.226Z,101328.14
2018-12-24T06:09:54.636Z,101324.58
2018-12-24T06:12:23.977Z,101329.09
2018-12-24T06:14:53.521Z,101330.96
2018-12-24T06:17:23.015Z,101342.56
2018-12-24T06:19:52.539Z,101340.38
2018-12-24T06:22:21.897Z,101350.63
2018-12-24T06:24:51.499Z,101360.56
2018-12-24T06:27:20.973Z,101360.56
2018-12-24T06:29:50.398Z,101370.82
2018-12-24T06:32:19.797Z,101363.75
2018-12-24T06:34:49.202Z,101365.95
2018-12-24T06:37:18.563Z,101375.86
2018-12-24T06:39:47.963Z,101379.03
2018-12-24T06:42:18.444Z,101382.58
2018-12-24T06:44:47.810Z,101382.58
2018-12-24T06:47:17.329Z,101385.28
2018-12-24T06:49:46.763Z,101385.28
2018-12-24T06:52:16.125Z,101391.62
2018-12-24T06:54:45.527Z,101388.45
2018-12-24T06:57:14.920Z,101391.62
2018-12-24T06:59:44.304Z,101388.94
2018-12-24T07:02:13.890Z,101395.56
2018-12-24T07:04:43.247Z,101390.27
2018-12-24T07:07:12.948Z,101396.05
2018-12-24T07:09:42.335Z,101396.05
2018-12-24T07:12:11.731Z,101404.12
2018-12-24T07:14:41.083Z,101402.77
2018-12-24T07:17:10.905Z,101402.77
2018-12-24T07:19:40.238Z,101404.12
2018-12-24T07:22:09.618Z,101414.02
2018-12-24T07:24:39.033Z,101417.58
2018-12-24T07:27:08.373Z,101418.44
2018-12-24T07:29:37.737Z,101420.62
2018-12-24T07:32:07.126Z,101418.44
2018-12-24T07:34:36.606Z,101425.17
2018-12-24T07:37:06.114Z,101426.52
2018-12-24T07:39:35.624Z,101426.52
2018-12-24T07:42:05.247Z,101430.03
2018-12-24T07:44:34.691Z,101440.80
2018-12-24T07:47:04.201Z,101429.08
2018-12-24T07:49:33.552Z,101433.11
2018-12-24T07:52:02.933Z,101432.73
2018-12-24T07:54:32.369Z,101438.02
2018-12-24T07:57:01.757Z,101443.27
2018-12-24T07:59:31.148Z,101442.41
2018-12-24T08:02:00.730Z,101439.61
2018-12-24T08:04:30.223Z,101444.99
2018-12-24T08:06:59.797Z,101454.80
2018-12-24T08:09:29.233Z,101455.62
2018-12-24T08:11:58.697Z,101447.55
2018-12-24T08:14:32.894Z,101454.66
2018-12-24T08:16:59.612Z,101454.19
2018-12-24T08:19:30.787Z,101459.09
2018-12-24T08:22:00.323Z,101451.49
2018-12-24T08:24:29.804Z,101467.89
2018-12-24T08:26:59.299Z,101473.77
2018-12-24T08:29:28.663Z,101480.02
2018-12-24T08:31:58.182Z,101480.02
2018-12-24T08:34:27.570Z,101484.05
2018-12-24T08:36:57.183Z,101488.95
2018-12-24T08:39:26.700Z,101491.64
2018-12-24T08:41:56.154Z,101483.56
2018-12-24T08:44:25.545Z,101481.70
2018-12-24T08:46:55.311Z,101482.57
2018-12-24T08:49:24.660Z,101478.92
2018-12-24T08:51:54.074Z,101478.92
2018-12-24T08:54:23.573Z,101481.61
2018-12-24T08:56:52.983Z,101481.95
2018-12-24T08:59:22.368Z,101475.74
2018-12-24T09:01:51.794Z,101484.65
2018-12-24T09:04:23.187Z,101480.13
2018-12-24T09:06:52.582Z,101477.44
2018-12-24T09:09:22.060Z,101476.95
2018-12-24T09:11:51.518Z,101480.13
2018-12-24T09:14:22.233Z,101472.92
2018-12-24T09:16:51.795Z,101472.53
2018-12-24T09:19:21.439Z,101478.30
2018-12-24T09:21:51.006Z,101470.23
2018-12-24T09:24:20.669Z,101470.61
2018-12-24T09:26:50.086Z,101461.67
2018-12-24T09:29:19.473Z,101470.96
2018-12-24T09:31:48.941Z,101463.02
2018-12-24T09:34:18.624Z,101473.66
2018-12-24T09:36:48.107Z,101481.73
2018-12-24T09:39:17.956Z,101484.42
2018-12-24T09:41:47.452Z,101482.11
2018-12-24T09:44:16.904Z,101477.20
2018-12-24T09:46:46.391Z,101481.11
2018-12-24T09:49:15.953Z,101475.38
2018-12-24T09:51:45.390Z,101473.66
2018-12-24T09:54:14.905Z,101474.52
2018-12-24T09:56:44.400Z,101475.00
2018-12-24T09:59:14.210Z,101467.30
2018-12-24T10:01:43.941Z,101468.16
2018-12-24T10:04:41.970Z,101457.88
2018-12-24T10:07:40.564Z,101464.61
2018-12-24T10:10:16.017Z,101483.45
2018-12-24T10:12:45.531Z,101477.69
2018-12-24T10:15:15.141Z,101466.19
2018-12-24T10:17:44.926Z,101478.30
2018-12-24T10:20:14.425Z,101474.65
2018-12-24T10:22:43.933Z,101472.44
2018-12-24T10:25:13.323Z,101477.34
2018-12-24T10:27:43.120Z,101474.75
2018-12-24T10:30:12.555Z,101480.99
2018-12-24T10:32:42.110Z,101483.20
2018-12-24T10:35:11.831Z,101479.17
2018-12-24T10:37:41.321Z,101479.17
2018-12-24T10:40:16.009Z,101479.17
2018-12-24T10:45:16.690Z,101469.75
2018-12-24T10:47:44.732Z,101467.53
2018-12-24T10:50:14.343Z,101469.61
2018-12-24T10:52:46.103Z,101457.63
2018-12-24T10:55:15.752Z,101455.80
2018-12-24T10:57:45.187Z,101457.63
2018-12-24T11:00:14.673Z,101450.03
2018-12-24T11:02:44.096Z,101450.41
2018-12-24T11:05:13.580Z,101453.46
2018-12-24T11:07:43.188Z,101446.38
2018-12-24T11:10:13.288Z,101447.34
2018-12-24T11:12:42.655Z,101453.59
2018-12-24T11:15:13.716Z,101451.86
2018-12-24T11:17:43.236Z,101453.11
2018-12-24T11:20:12.675Z,101456.77
2018-12-24T11:22:42.052Z,101460.80
2018-12-24T11:25:11.692Z,101471.57
2018-12-24T11:27:41.286Z,101468.40
2018-12-24T11:32:39.046Z,101463.87
2018-12-24T11:35:08.842Z,101455.42
2018-12-24T11:37:38.328Z,101446.00
2018-12-24T11:40:08.056Z,101450.90
2018-12-24T11:42:37.607Z,101454.94
2018-12-24T11:45:07.333Z,101453.69
2018-12-24T11:47:36.876Z,101455.90
2018-12-24T11:50:06.358Z,101450.65
2018-12-24T11:52:35.831Z,101455.55
2018-12-24T11:55:05.478Z,101465.45
2018-12-24T11:57:34.833Z,101473.15
2018-12-24T12:00:04.463Z,101467.77
2018-12-24T12:02:34.093Z,101464.20
2018-12-24T12:05:03.680Z,101455.30
2018-12-24T12:07:33.390Z,101457.99
2018-12-24T12:10:04.611Z,101453.57
2018-12-24T12:12:34.082Z,101447.70
2018-12-24T12:15:03.579Z,101457.23
2018-12-24T12:17:33.074Z,101453.57
2018-12-24T12:20:02.684Z,101452.23
2018-12-24T12:22:32.311Z,101452.84
2018-12-24T12:25:01.894Z,101451.02
2018-12-24T12:27:31.441Z,101466.30
2018-12-24T12:30:00.993Z,101467.64
2018-12-24T12:32:30.455Z,101468.99
2018-12-24T12:34:59.847Z,101473.03
2018-12-24T12:37:29.317Z,101470.82
2018-12-24T12:39:58.751Z,101476.69
2018-12-24T12:42:28.128Z,101473.13
2018-12-24T12:44:57.542Z,101465.56
2018-12-24T12:47:27.084Z,101460.19
2018-12-24T12:49:58.927Z,101463.70
2018-12-24T12:52:28.389Z,101448.55
2018-12-24T12:54:58.008Z,101453.45
2018-12-24T12:57:27.529Z,101457.97
2018-12-24T12:59:57.007Z,101460.19
2018-12-24T13:02:26.587Z,101458.45
2018-12-24T13:04:56.118Z,101451.72
2018-12-24T13:07:25.628Z,101454.41
2018-12-24T13:09:55.223Z,101441.44
2018-12-24T13:12:24.617Z,101437.88
2018-12-24T13:14:54.047Z,101436.53
2018-12-24T13:17:23.652Z,101440.58
2018-12-24T13:19:53.194Z,101445.61
2018-12-24T13:22:23.070Z,101456.38
2018-12-24T13:24:52.619Z,101459.06
2018-12-24T13:27:22.086Z,101461.76
2018-12-24T13:29:51.474Z,101457.34
2018-12-24T13:32:21.059Z,101458.69
2018-12-24T13:34:50.711Z,101458.55
2018-12-24T13:37:20.221Z,101448.30
2018-12-24T13:39:49.664Z,101445.22
2018-12-24T13:42:19.114Z,101451.95
2018-12-24T13:44:48.517Z,101456.47
2018-12-24T13:47:18.088Z,101455.61
2018-12-24T13:49:47.543Z,101452.44
2018-12-24T13:52:16.942Z,101455.13
2018-12-24T13:54:46.360Z,101448.88
2018-12-24T13:57:15.753Z,101452.44
2018-12-24T13:59:45.171Z,101448.88
2018-12-24T14:02:16.553Z,101448.39
2018-12-24T14:04:45.731Z,101447.05
2018-12-24T14:07:16.324Z,101455.99
2018-12-24T14:09:45.768Z,101451.09
2018-12-24T14:12:15.287Z,101450.61
2018-12-24T14:14:44.722Z,101454.64
2018-12-24T14:17:14.144Z,101446.95
2018-12-24T14:19:43.573Z,101452.34
2018-12-24T14:22:12.962Z,101443.40
2018-12-24T14:24:42.404Z,101447.78
2018-12-24T14:27:11.795Z,101453.68
2018-12-24T14:29:42.555Z,101450.48
2018-12-24T14:32:11.977Z,101454.52
2018-12-24T14:34:41.469Z,101446.95
2018-12-24T14:37:10.974Z,101440.09
2018-12-24T14:39:40.382Z,101436.05
2018-12-24T14:42:09.879Z,101435.19
2018-12-24T14:44:39.618Z,101439.61
2018-12-24T14:47:09.101Z,101438.75
2018-12-24T14:49:38.599Z,101441.82
2018-12-24T14:52:08.003Z,101436.92
2018-12-24T14:54:37.678Z,101433.36
2018-12-24T14:57:07.077Z,101430.19
2018-12-24T14:59:36.514Z,101434.23
2018-12-24T15:02:05.908Z,101435.57
2018-12-24T15:04:35.414Z,101436.44
2018-12-24T15:07:04.935Z,101433.27
2018-12-24T15:09:34.314Z,101444.03
2018-12-24T15:12:03.976Z,101444.86
2018-12-24T15:14:33.355Z,101436.78
2018-12-24T15:17:02.872Z,101440.47
2018-12-24T15:19:33.766Z,101436.78
2018-12-24T15:22:03.262Z,101440.47
2018-12-24T15:24:32.823Z,101441.34
2018-12-24T15:27:02.747Z,101438.65
2018-12-24T15:29:32.241Z,101438.13
2018-12-24T15:32:01.675Z,101438.65
2018-12-24T15:34:31.046Z,101436.44
2018-12-24T15:37:00.460Z,101431.53
2018-12-24T15:39:30.062Z,101431.91
2018-12-24T15:41:59.831Z,101428.23
2018-12-24T15:44:29.442Z,101417.94
2018-12-24T15:46:58.895Z,101406.34
2018-12-24T15:49:28.389Z,101413.08
2018-12-24T15:51:57.907Z,101411.22
2018-12-24T15:54:27.349Z,101407.17
2018-12-24T15:56:56.873Z,101407.17
2018-12-24T15:59:26.370Z,101402.30
2018-12-24T16:01:56.177Z,101398.62
2018-12-24T16:04:25.757Z,101399.10
2018-12-24T16:06:55.336Z,101395.58
2018-12-24T16:09:26.077Z,101390.67
2018-12-24T16:11:55.517Z,101391.02
2018-12-24T16:14:24.925Z,101396.41
2018-12-24T16:16:54.361Z,101392.88
2018-12-24T16:19:23.914Z,101393.72
2018-12-24T16:21:53.375Z,101398.27
2018-12-24T16:24:22.770Z,101390.20
2018-12-24T16:26:52.350Z,101390.30
2018-12-24T16:29:21.995Z,101377.70
2018-12-24T16:31:51.481Z,101379.05
2018-12-24T16:34:20.951Z,101385.77
2018-12-24T16:36:50.366Z,101386.64
2018-12-24T16:39:19.898Z,101394.33
2018-12-24T16:41:49.384Z,101393.37
2018-12-24T16:44:18.766Z,101388.47
2018-12-24T16:46:48.183Z,101390.67
2018-12-24T16:49:17.748Z,101384.42
2018-12-24T16:51:47.234Z,101390.67
2018-12-24T16:54:16.611Z,101381.73
2018-12-24T16:56:46.058Z,101376.35
2018-12-24T16:59:15.549Z,101362.03
2018-12-24T17:01:45.183Z,101362.52
2018-12-24T17:04:14.675Z,101365.20
2018-12-24T17:06:44.120Z,101359.81
2018-12-24T17:09:13.671Z,101356.64
2018-12-24T17:11:43.183Z,101349.92
2018-12-24T17:14:12.624Z,101346.73
2018-12-24T17:16:42.364Z,101354.44
2018-12-24T17:19:11.823Z,101349.53
2018-12-24T17:21:41.306Z,101352.23
2018-12-24T17:24:10.856Z,101353.95
2018-12-24T17:26:40.616Z,101362.52
2018-12-24T17:29:10.021Z,101361.65
2018-12-24T17:31:39.460Z,101355.78
2018-12-24T17:34:09.042Z,101358.47
2018-12-24T17:36:38.657Z,101349.53
2018-12-24T17:39:09.529Z,101355.44
2018-12-24T17:41:40.245Z,101357.12
2018-12-24T17:44:09.928Z,101357.12
2018-12-24T17:46:39.587Z,101357.61
2018-12-24T17:49:09.076Z,101356.64
2018-12-24T17:51:38.538Z,101352.23
2018-12-24T17:54:08.186Z,101354.09
2018-12-24T17:56:37.658Z,101349.53
2018-12-24T17:59:07.273Z,101343.67
2018-12-24T18:01:36.776Z,101343.32
2018-12-24T18:04:06.386Z,101345.15
2018-12-24T18:06:36.092Z,101340.62
2018-12-24T18:09:08.087Z,101338.91
2018-12-24T18:11:38.807Z,101333.52
2018-12-24T18:14:08.226Z,101336.21
2018-12-24T18:16:37.888Z,101337.17
2018-12-24T18:19:07.331Z,101329.61
2018-12-24T18:21:36.726Z,101331.45
2018-12-24T18:24:06.186Z,101325.20
2018-12-24T18:26:35.642Z,101324.33
2018-12-24T18:29:05.125Z,101327.03
2018-12-24T18:31:34.730Z,101329.85
2018-12-24T18:34:04.131Z,101332.89
2018-12-24T18:36:33.870Z,101328.85
2018-12-24T18:39:04.576Z,101331.20
2018-12-24T18:41:36.190Z,101330.33
2018-12-24T18:44:06.420Z,101332.64
2018-12-24T18:46:35.850Z,101333.16
2018-12-24T18:49:05.283Z,101330.95
2018-12-24T18:51:35.057Z,101319.80
2018-12-24T18:54:04.678Z,101318.11
2018-12-24T18:56:34.237Z,101318.94
2018-12-24T18:59:03.729Z,101315.42
2018-12-24T19:01:33.123Z,101312.21
2018-12-24T19:04:02.786Z,101314.66
2018-12-24T19:06:32.402Z,101313.69
2018-12-24T19:09:01.916Z,101310.14
2018-12-24T19:11:31.553Z,101315.52
2018-12-24T19:14:01.358Z,101312.83
2018-12-24T19:16:30.918Z,101302.55
2018-12-24T19:19:00.588Z,101298.51
2018-12-24T19:21:30.098Z,101293.64
2018-12-24T19:23:59.629Z,101298.64
2018-12-24T19:26:29.115Z,101294.61
2018-12-24T19:28:58.610Z,101290.19
2018-12-24T19:31:29.215Z,101285.19
2018-12-24T19:33:58.860Z,101287.02
2018-12-24T19:36:28.387Z,101281.63
2018-12-24T19:38:57.947Z,101276.73
2018-12-24T19:41:27.471Z,101268.66
2018-12-24T19:43:56.978Z,101276.25
2018-12-24T19:46:26.478Z,101274.05
2018-12-24T19:48:56.046Z,101276.73
2018-12-24T19:51:25.499Z,101282.59
2018-12-24T19:53:55.067Z,101281.77
2018-12-24T19:56:24.488Z,101273.70
2018-12-24T19:58:53.912Z,101276.25
2018-12-24T20:01:23.521Z,101277.22
2018-12-24T20:03:52.950Z,101271.83
2018-12-24T20:06:22.546Z,101270.48
2018-12-24T20:08:52.120Z,101264.63
2018-12-24T20:11:21.837Z,101261.45
2018-12-24T20:13:51.516Z,101256.07
2018-12-24T20:16:21.076Z,101254.23
2018-12-24T20:18:50.485Z,101246.17
2018-12-24T20:21:19.901Z,101242.12
2018-12-24T20:23:49.337Z,101238.95
2018-12-24T20:26:18.907Z,101238.09
2018-12-24T20:28:48.423Z,101238.95
2018-12-24T20:31:18.013Z,101240.65
2018-12-24T20:33:47.708Z,101236.61
2018-12-24T20:36:17.120Z,101221.33
2018-12-24T20:38:46.575Z,101220.84
2018-12-24T20:41:16.039Z,101213.73
2018-12-24T20:43:45.589Z,101210.94
2018-12-24T20:46:14.995Z,101211.80
2018-12-24T20:48:44.495Z,101205.56
2018-12-24T20:51:16.283Z,101201.04
2018-12-24T20:53:45.210Z,101192.97
2018-12-24T20:56:14.658Z,101185.38
2018-12-24T20:58:44.215Z,101177.30
2018-12-24T21:01:13.713Z,101178.17
2018-12-24T21:03:43.220Z,101172.27
2018-12-24T21:06:13.471Z,101166.89
2018-12-24T21:08:43.161Z,101160.67
2018-12-24T21:11:12.817Z,101157.98
2018-12-24T21:13:42.317Z,101158.33
2018-12-24T21:16:11.989Z,101153.81
2018-12-24T21:18:41.703Z,101159.19
2018-12-24T21:21:11.264Z,101155.16
2018-12-24T21:23:40.726Z,101155.16
2018-12-24T21:26:10.149Z,101153.33
2018-12-24T21:28:39.666Z,101151.98
2018-12-24T21:31:09.218Z,101147.94
2018-12-24T21:33:38.635Z,101148.80
2018-12-24T21:36:08.089Z,101148.28
2018-12-24T21:38:37.679Z,101141.22
2018-12-24T21:41:07.140Z,101144.63
2018-12-24T21:43:36.567Z,101143.91
2018-12-24T21:46:06.069Z,101142.08
2018-12-24T21:48:35.484Z,101144.63
2018-12-24T21:51:05.076Z,101132.66
2018-12-24T21:53:34.627Z,101132.52
2018-12-24T21:56:04.246Z,101127.62
2018-12-24T21:58:33.855Z,101127.27
2018-12-24T22:01:03.337Z,101129.34
2018-12-24T22:03:32.759Z,101118.09
2018-12-24T22:06:02.468Z,101115.02
2018-12-24T22:08:31.981Z,101109.16
2018-12-24T22:11:01.557Z,101104.74
2018-12-24T22:13:31.151Z,101101.70
2018-12-24T22:16:02.321Z,101090.94
2018-12-24T22:18:32.366Z,101089.45
2018-12-24T22:21:02.218Z,101084.70
2018-12-24T22:23:31.774Z,101077.97
2018-12-24T22:26:01.373Z,101070.62
2018-12-24T22:28:30.811Z,101077.83
2018-12-24T22:31:00.299Z,101075.52
2018-12-24T22:33:29.738Z,101067.55
2018-12-24T22:35:59.247Z,101069.65
2018-12-24T22:38:28.733Z,101067.45
2018-12-24T22:40:58.445Z,101060.34
2018-12-24T22:43:27.933Z,101057.02
2018-12-24T22:45:57.470Z,101053.61
2018-12-24T22:48:26.877Z,101048.61
2018-12-24T22:50:56.463Z,101045.43
2018-12-24T22:53:28.254Z,101038.33
2018-12-24T22:55:57.819Z,101037.84
2018-12-24T22:58:27.303Z,101032.45
2018-12-24T23:00:57.159Z,101031.11
2018-12-24T23:03:26.793Z,101024.48
2018-12-24T23:05:56.618Z,101029.28
2018-12-24T23:08:26.195Z,101029.77
2018-12-24T23:10:55.844Z,101023.52
2018-12-24T23:13:25.686Z,101027.56
2018-12-24T23:15:55.145Z,101025.73
2018-12-24T23:18:24.702Z,101016.31
2018-12-24T23:20:54.326Z,101012.27
2018-12-24T23:23:23.873Z,101005.06
2018-12-24T23:25:53.467Z,101006.17
2018-12-24T23:28:23.144Z,100998.09
2018-12-24T23:30:52.892Z,100999.44
2018-12-24T23:33:22.562Z,100997.58
2018-12-24T23:35:52.135Z,100998.09
2018-12-24T23:38:21.713Z,100989.50
2018-12-24T23:40:51.107Z,100991.38
2018-12-24T23:43:20.795Z,100989.39
2018-12-24T23:45:50.183Z,100984.98
2018-12-24T23:48:19.738Z,100985.13
2018-12-24T23:50:49.224Z,100975.71
2018-12-24T23:53:18.783Z,100973.88
2018-12-24T23:55:48.259Z,100969.84
2018-12-24T23:58:17.997Z,100965.43
